Chicago, Illinois
Current Conditions -  °F | °C
As of 7:53 AM on Monday 26 Jan 2015 (Local Time) from KMDW Reporting Station
Broken Clouds Broken Clouds  
Wind Chill: 12°   Ceiling: 14000
Heat Index: 21°   Visibility: 10mi
Dew Point: 16°   Wind: 7mph
Humidity: 81%   Direction: 210°SSW
Pressure: 29.97"   Gusts: NA
Location:  41.88°N, 87.63°W
Report Text: KMDW 261353Z 21006KT 10SM FEW020 BKN140 BKN200 BKN250 M06/M09 A2997 RMK AO2 SLP165 T10611089
Loading
Personal Weather Stations






























Interactive Weather Map New forecast layout! Learn more

10-Day Weather Forecast

Advertisements
Track Severe Weather on mobile